Time;durP1;ratioP1;P1;durP2;ratioP2;P2;SDS_P1;SDS_P2;PMS_P1;PMS_P2;Temp;Humidity;BMP_temperature;BMP_pressure;BME280_temperature;BME280_humidity;BME280_pressure;Samples;Min_cycle;Max_cycle;Signal;HPM_P1;HPM_P2
2022/06/16 00:01:03;;;;;;;;;20.33;20.33;;;;;22.18;71.17;100410.72;5059970;28;45342;-75
2022/06/16 00:03:28;;;;;;;;;21.00;19.00;;;;;22.21;71.00;100404.44;5059561;28;46066;-80
2022/06/16 00:05:54;;;;;;;;;23.00;21.67;;;;;22.20;70.51;100400.94;5059487;28;45540;-81
2022/06/16 00:08:20;;;;;;;;;22.33;21.33;;;;;22.11;71.03;100393.13;5059700;28;45489;-78
2022/06/16 00:13:34;;;;;;;;;31.33;29.33;;;;;22.11;71.26;100410.88;5059382;28;45896;-80
2022/06/16 00:16:00;;;;;;;;;25.67;23.33;;;;;21.94;72.14;100379.25;5059665;28;45468;-78
2022/06/16 00:18:26;;;;;;;;;24.00;21.67;;;;;22.11;71.62;100408.22;5059506;28;45500;-73
2022/06/16 00:20:52;;;;;;;;;24.00;22.33;;;;;21.91;72.38;100363.38;5059238;28;45353;-79
2022/06/16 00:23:17;;;;;;;;;23.33;21.00;;;;;22.06;71.35;100394.97;5059164;28;45486;-80
2022/06/16 00:25:43;;;;;;;;;21.67;21.67;;;;;22.09;71.94;100408.22;5059195;28;45358;-77
2022/06/16 00:28:09;;;;;;;;;28.00;26.67;;;;;21.96;71.70;100382.78;5058378;28;45315;-78
2022/06/16 00:30:35;;;;;;;;;22.33;22.00;;;;;22.04;71.74;100413.66;5059589;28;45223;-81
2022/06/16 00:33:00;;;;;;;;;21.00;20.67;;;;;22.13;71.97;100433.00;5059132;28;45578;-74
2022/06/16 00:35:26;;;;;;;;;23.00;22.33;;;;;22.12;72.11;100420.59;5057757;28;45268;-81
2022/06/16 00:37:51;;;;;;;;;23.00;22.67;;;;;21.95;72.26;100391.66;5057737;28;45580;-77
2022/06/16 00:40:17;;;;;;;;;23.33;22.00;;;;;22.15;72.66;100429.38;5059324;28;45169;-74
2022/06/16 00:42:44;;;;;;;;;25.33;25.00;;;;;22.19;72.87;100424.88;5057634;28;45275;-80
2022/06/16 00:45:47;;;;;;;;;21.67;21.33;;;;;22.22;72.41;100419.50;5059264;28;45464;-73
2022/06/16 00:48:45;;;;;;;;;19.33;18.33;;;;;22.24;72.22;100415.06;5059003;28;45287;-74
2022/06/16 00:51:46;;;;;;;;;20.33;20.00;;;;;22.27;71.37;100417.66;5050740;28;45497;-79
2022/06/16 00:54:19;;;;;;;;;24.33;23.00;;;;;22.24;71.40;100420.38;5049835;28;45384;-75
2022/06/16 00:56:44;;;;;;;;;20.67;20.67;;;;;22.05;71.89;100385.25;5058811;28;45334;-81
2022/06/16 00:59:11;;;;;;;;;22.25;21.25;;;;;22.16;72.47;100415.19;5057620;28;45401;-80
2022/06/16 01:01:39;;;;;;;;;23.33;23.00;;;;;22.04;72.34;100392.38;5058983;28;45257;-74
2022/06/16 01:06:50;;;;;;;;;24.75;23.50;;;;;22.11;73.09;100392.25;5058696;28;45559;-79
2022/06/16 01:09:19;;;;;;;;;26.50;24.25;;;;;22.07;73.54;100379.91;5058526;28;45348;-77
2022/06/16 01:15:08;;;;;;;;;25.00;22.67;;;;;21.90;73.59;100361.63;5058215;28;45516;-73
2022/06/16 01:17:46;;;;;;;;;26.67;24.67;;;;;21.89;73.27;100354.56;5057011;28;45445;-81
2022/06/16 01:20:15;;;;;;;;;25.00;23.50;;;;;21.90;73.39;100372.25;5058728;28;45410;-73
2022/06/16 01:23:10;;;;;;;;;25.00;24.33;;;;;21.92;73.63;100400.56;5057386;28;45510;-73
2022/06/16 01:26:02;;;;;;;;;25.50;23.75;;;;;21.92;73.99;100436.94;5058328;28;46125;-81
2022/06/16 01:28:44;;;;;;;;;27.50;24.75;;;;;21.92;74.60;100432.47;5058285;28;45235;-81
2022/06/16 01:31:23;;;;;;;;;24.50;24.00;;;;;21.74;73.99;100388.50;5058669;28;45336;-79
2022/06/16 01:34:04;;;;;;;;;26.25;24.25;;;;;21.89;75.11;100410.41;5057543;28;45257;-77
2022/06/16 01:36:45;;;;;;;;;24.75;23.25;;;;;21.82;75.46;100438.88;5057949;28;45563;-80
2022/06/16 01:39:18;;;;;;;;;24.75;23.50;;;;;21.81;75.50;100469.91;5058392;28;45426;-73
2022/06/16 01:42:13;;;;;;;;;26.50;25.00;;;;;21.63;75.35;100423.25;5058251;28;45426;-73
2022/06/16 01:44:55;;;;;;;;;25.50;24.50;;;;;21.67;75.37;100417.91;5057717;28;45455;-77
2022/06/16 01:47:23;;;;;;;;;30.75;29.00;;;;;21.67;76.04;100434.72;5057712;28;45430;-73
2022/06/16 01:50:05;;;;;;;;;26.75;26.75;;;;;21.16;75.20;100347.84;5057497;28;45405;-76
2022/06/16 01:52:39;;;;;;;;;30.00;29.75;;;;;21.49;75.71;100398.72;5058063;28;45296;-78
2022/06/16 01:55:14;;;;;;;;;27.50;26.00;;;;;21.47;76.60;100388.97;5058252;28;45393;-81
2022/06/16 01:57:55;;;;;;;;;26.25;25.75;;;;;21.55;76.31;100403.91;5057767;28;45400;-79
2022/06/16 02:00:24;;;;;;;;;31.25;27.00;;;;;21.46;76.19;100385.47;5057871;28;45463;-74
2022/06/16 02:03:00;;;;;;;;;28.25;27.25;;;;;21.53;76.46;100408.38;5057920;28;45210;-80
2022/06/16 02:05:32;;;;;;;;;23.50;23.25;;;;;21.52;76.43;100414.59;5058059;28;45483;-79
2022/06/16 02:08:09;;;;;;;;;24.50;23.25;;;;;21.43;75.33;100388.19;5057405;28;46271;-81
2022/06/16 02:10:41;;;;;;;;;25.00;22.33;;;;;21.53;75.76;100391.56;5057557;28;45231;-75
2022/06/16 02:13:10;;;;;;;;;25.67;23.00;;;;;21.52;75.55;100379.16;5057719;28;45515;-80
2022/06/16 02:15:41;;;;;;;;;22.67;21.67;;;;;21.50;76.18;100373.00;5056436;28;45584;-81
2022/06/16 02:18:11;;;;;;;;;24.33;24.33;;;;;21.26;75.43;100324.66;5057332;28;45531;-81
2022/06/16 02:20:56;;;;;;;;;21.67;21.00;;;;;21.50;75.53;100367.69;5057443;28;45441;-74
2022/06/16 02:23:22;;;;;;;;;22.00;21.50;;;;;21.51;75.48;100375.63;5057655;28;45242;-81
2022/06/16 02:25:52;;;;;;;;;21.25;20.25;;;;;21.52;75.17;100373.84;5057931;28;45456;-74
2022/06/16 02:28:17;;;;;;;;;23.00;22.67;;;;;21.40;75.57;100351.00;5057481;28;45396;-74
2022/06/16 02:31:06;;;;;;;;;21.00;20.33;;;;;21.51;75.35;100374.78;5056185;28;45286;-81
2022/06/16 02:33:58;;;;;;;;;24.00;22.00;;;;;21.41;74.84;100374.03;5057492;28;45293;-81
2022/06/16 02:36:24;;;;;;;;;20.00;18.67;;;;;21.49;74.88;100389.84;5035761;28;45521;-81
2022/06/16 02:39:23;;;;;;;;;19.33;18.33;;;;;21.47;75.06;100388.97;5057215;28;45923;-80
2022/06/16 02:42:04;;;;;;;;;19.00;18.67;;;;;21.43;74.81;100394.38;5057404;28;45491;-78
2022/06/16 02:44:38;;;;;;;;;22.33;22.33;;;;;21.42;74.89;100402.31;5057290;28;45279;-81
2022/06/16 02:47:15;;;;;;;;;20.33;19.67;;;;;21.40;75.10;100420.06;5057300;28;45313;-81
2022/06/16 02:50:04;;;;;;;;;23.67;23.00;;;;;21.19;74.85;100390.31;5056838;28;46087;-78
2022/06/16 02:52:47;;;;;;;;;21.00;21.00;;;;;21.17;74.82;100392.13;5057132;28;45534;-80
2022/06/16 02:55:27;;;;;;;;;20.33;18.67;;;;;21.19;75.08;100406.25;5057056;28;45270;-80
2022/06/16 02:57:57;;;;;;;;;20.67;19.67;;;;;21.16;74.68;100395.66;5055786;28;45635;-81
2022/06/16 03:00:29;;;;;;;;;19.00;18.00;;;;;21.31;75.07;100423.78;5055547;28;46341;-74
2022/06/16 03:02:55;;;;;;;;;19.33;19.00;;;;;21.29;74.97;100428.25;5056949;28;45283;-75
2022/06/16 03:05:20;;;;;;;;;23.33;22.00;;;;;21.18;74.87;100423.06;5056894;28;45491;-80
2022/06/16 03:07:46;;;;;;;;;24.33;21.67;;;;;21.20;75.21;100428.38;5057667;28;45328;-81
2022/06/16 03:10:50;;;;;;;;;22.67;21.33;;;;;21.29;75.27;100456.56;5056669;28;45984;-81
2022/06/16 03:13:00;;;;;;;;;21.75;21.75;;;;;21.18;75.27;100454.97;5056567;28;45521;-73
2022/06/16 03:15:26;;;;;;;;;22.25;21.50;;;;;21.37;75.32;100490.09;5056807;28;45500;-75
2022/06/16 03:17:51;;;;;;;;;23.67;22.67;;;;;21.44;74.30;100482.94;5057111;28;45563;-80
2022/06/16 03:20:17;;;;;;;;;25.00;23.67;;;;;21.57;74.36;100488.94;5055799;28;46339;-81
2022/06/16 03:22:42;;;;;;;;;23.33;22.00;;;;;21.61;74.04;100510.13;5055291;28;45193;-77
2022/06/16 03:25:10;;;;;;;;;19.00;18.00;;;;;21.67;74.03;100510.94;5055425;28;45391;-76
2022/06/16 03:27:36;;;;;;;;;20.67;19.00;;;;;21.80;73.30;100516.00;5056829;28;45591;-77
2022/06/16 03:30:02;;;;;;;;;21.67;20.00;;;;;21.80;73.94;100520.47;5056380;28;46123;-81
2022/06/16 03:32:27;;;;;;;;;20.67;19.67;;;;;21.84;74.30;100544.34;5056577;28;45580;-81
2022/06/16 03:34:53;;;;;;;;;20.00;19.00;;;;;21.82;74.43;100532.81;5056548;28;45251;-80
2022/06/16 03:37:19;;;;;;;;;18.67;17.33;;;;;21.68;74.44;100512.69;5057109;28;45277;-81
2022/06/16 03:39:44;;;;;;;;;17.00;16.00;;;;;21.80;73.92;100547.03;5056361;28;45993;-75
2022/06/16 03:42:10;;;;;;;;;17.00;14.67;;;;;21.67;75.62;100537.53;5056442;28;45446;-78
2022/06/16 03:44:35;;;;;;;;;15.67;14.33;;;;;21.62;75.31;100537.59;5056443;28;45291;-73
2022/06/16 03:47:01;;;;;;;;;13.67;12.00;;;;;21.80;75.79;100552.38;5055479;28;45304;-81
2022/06/16 03:49:26;;;;;;;;;16.67;14.67;;;;;21.64;75.83;100533.13;5056288;28;46004;-80
2022/06/16 03:51:52;;;;;;;;;18.00;15.33;;;;;21.75;75.27;100567.53;5056635;28;45286;-74
2022/06/16 03:54:17;;;;;;;;;14.67;13.33;;;;;21.71;75.60;100563.16;5056807;28;45329;-75
2022/06/16 03:56:44;;;;;;;;;13.33;13.00;;;;;21.60;76.78;100561.53;5057582;28;45374;-74
2022/06/16 03:59:10;;;;;;;;;10.33;10.33;;;;;21.50;76.07;100537.78;5059579;28;46064;-80
2022/06/16 04:01:35;;;;;;;;;10.00;10.00;;;;;21.43;76.31;100526.38;5059608;28;45309;-73
2022/06/16 04:04:01;;;;;;;;;10.00;10.00;;;;;21.58;76.34;100563.34;5059847;28;45404;-81
2022/06/16 04:06:29;;;;;;;;;12.00;10.67;;;;;21.44;76.90;100542.28;5059750;28;45258;-81
2022/06/16 04:08:55;;;;;;;;;13.00;11.00;;;;;21.28;76.54;100521.25;5058189;28;45636;-81
2022/06/16 04:11:27;;;;;;;;;12.00;10.00;;;;;21.48;76.97;100563.50;5075178;28;45544;-81
2022/06/16 04:13:54;;;;;;;;;13.33;12.00;;;;;21.47;76.76;100565.28;5059981;28;45263;-77
2022/06/16 04:16:19;;;;;;;;;13.33;12.67;;;;;21.48;76.40;100567.03;5060101;28;45331;-78
2022/06/16 04:18:45;;;;;;;;;10.33;9.33;;;;;21.49;76.54;100571.47;5059364;28;46119;-81
2022/06/16 04:21:12;;;;;;;;;12.33;11.33;;;;;21.38;76.17;100552.09;5059334;28;45479;-78
2022/06/16 04:23:38;;;;;;;;;10.33;10.00;;;;;21.44;76.13;100563.53;5058219;28;45345;-80
2022/06/16 04:26:04;;;;;;;;;10.33;10.00;;;;;21.53;76.44;100577.63;5059713;28;45437;-76
2022/06/16 04:28:30;;;;;;;;;13.67;12.00;;;;;21.48;76.18;100579.44;5059128;28;45223;-74
2022/06/16 04:30:55;;;;;;;;;14.67;13.67;;;;;21.58;75.86;100595.22;5059356;28;45495;-74
2022/06/16 04:33:21;;;;;;;;;14.67;14.00;;;;;21.43;75.80;100574.22;5059668;28;45427;-80
2022/06/16 04:35:47;;;;;;;;;14.67;14.00;;;;;21.41;76.07;100560.03;5059548;28;45301;-81
2022/06/16 04:38:12;;;;;;;;;13.33;11.67;;;;;21.53;75.63;100583.81;5058949;28;45460;-80
2022/06/16 04:40:38;;;;;;;;;12.00;11.00;;;;;21.57;75.53;100604.13;5059094;28;45339;-76
2022/06/16 04:43:04;;;;;;;;;14.00;13.00;;;;;21.58;75.53;100597.03;5059216;28;45243;-78
2022/06/16 04:45:29;;;;;;;;;13.67;12.67;;;;;21.59;75.38;100596.13;5057805;28;45539;-73
2022/06/16 04:47:55;;;;;;;;;13.00;13.00;;;;;21.54;75.33;100582.00;5057584;28;46334;-73
2022/06/16 04:50:21;;;;;;;;;15.67;15.00;;;;;21.72;74.76;100599.47;5058980;28;45535;-76
2022/06/16 04:52:47;;;;;;;;;14.33;13.00;;;;;21.77;75.04;100595.84;5059107;28;45472;-79
2022/06/16 04:55:14;;;;;;;;;14.33;11.00;;;;;21.83;73.88;100594.88;5058999;28;45429;-78
2022/06/16 04:57:40;;;;;;;;;13.33;11.00;;;;;21.72;74.32;100572.88;5057439;28;46672;-79
2022/06/16 05:00:11;;;;;;;;;11.67;10.33;;;;;21.91;73.78;100592.97;5058746;28;45320;-77
2022/06/16 05:02:36;;;;;;;;;16.33;16.00;;;;;21.95;73.61;100596.47;5058781;28;45543;-76
2022/06/16 05:05:02;;;;;;;;;13.67;12.33;;;;;22.04;73.76;100613.16;5057311;28;45550;-76
2022/06/16 05:07:28;;;;;;;;;16.00;15.67;;;;;22.10;72.94;100613.94;5058590;28;45346;-76
2022/06/16 05:09:54;;;;;;;;;15.67;15.67;;;;;22.16;72.95;100613.84;5057428;28;45363;-73
2022/06/16 05:12:19;;;;;;;;;13.33;13.33;;;;;22.19;72.69;100620.00;5058550;28;45176;-74
2022/06/16 05:14:45;;;;;;;;;14.33;12.67;;;;;22.09;72.99;100607.75;5058740;28;45453;-73
2022/06/16 05:17:10;;;;;;;;;17.00;15.33;;;;;22.20;72.97;100628.84;5058388;28;45305;-74
2022/06/16 05:19:36;;;;;;;;;19.67;16.00;;;;;22.26;72.88;100647.41;5058410;28;45422;-73
2022/06/16 05:22:05;;;;;;;;;15.67;15.00;;;;;22.19;71.85;100637.75;5058421;28;45210;-73
2022/06/16 05:24:31;;;;;;;;;15.00;14.50;;;;;22.19;71.60;100649.25;5058686;28;45306;-81
2022/06/16 05:26:57;;;;;;;;;15.00;13.33;;;;;22.11;72.02;100634.34;5058561;28;45255;-80
2022/06/16 05:29:23;;;;;;;;;12.67;11.67;;;;;22.04;72.43;100636.19;5058251;28;45504;-73
2022/06/16 05:31:49;;;;;;;;;20.67;17.33;;;;;21.94;72.66;100635.47;5058212;28;45311;-80
2022/06/16 05:34:15;;;;;;;;;19.67;16.00;;;;;21.90;72.85;100644.41;5058407;28;45209;-73
2022/06/16 05:36:43;;;;;;;;;14.33;13.00;;;;;21.95;73.15;100642.56;5058175;28;45287;-75
2022/06/16 05:39:09;;;;;;;;;17.00;15.00;;;;;21.83;72.80;100600.19;5058192;28;45437;-79
2022/06/16 05:41:34;;;;;;;;;14.00;14.00;;;;;22.04;72.44;100629.13;5058156;28;45712;-73
2022/06/16 05:44:00;;;;;;;;;15.67;12.33;;;;;22.32;72.21;100652.66;5057829;28;45454;-72
2022/06/16 05:46:26;;;;;;;;;15.33;13.67;;;;;22.54;71.52;100658.47;5057544;28;45307;-74
2022/06/16 05:48:52;;;;;;;;;16.00;14.67;;;;;22.75;71.30;100657.19;5057679;28;45484;-73
2022/06/16 05:51:18;;;;;;;;;16.33;15.67;;;;;23.03;70.20;100665.56;5058209;28;45354;-74
2022/06/16 05:53:44;;;;;;;;;15.00;14.67;;;;;23.14;70.00;100638.72;5058142;28;45381;-73
2022/06/16 05:56:11;;;;;;;;;14.67;14.67;;;;;23.60;69.49;100668.88;5057763;28;45299;-76
2022/06/16 05:58:37;;;;;;;;;22.33;18.33;;;;;23.69;67.70;100619.75;5057823;28;45528;-77
2022/06/16 06:01:03;;;;;;;;;17.00;15.67;;;;;24.64;65.91;100676.22;5057800;28;45304;-73
2022/06/16 06:03:29;;;;;;;;;19.00;16.67;;;;;25.74;63.60;100672.19;5058386;28;45345;-73
2022/06/16 06:05:55;;;;;;;;;18.33;17.33;;;;;26.74;59.45;100649.34;5057556;28;45541;-73
2022/06/16 06:16:40;;;;;;;;;18.67;16.67;;;;;29.38;52.45;100663.78;5057280;28;45431;-73
2022/06/16 06:19:26;;;;;;;;;18.67;17.67;;;;;30.16;50.16;100676.19;5056844;28;45488;-73
2022/06/16 06:21:59;;;;;;;;;15.33;15.33;;;;;31.07;48.33;100664.34;5056173;28;45277;-76
2022/06/16 06:24:33;;;;;;;;;19.67;17.67;;;;;32.00;47.10;100668.28;5057852;28;45440;-75
2022/06/16 06:27:09;;;;;;;;;21.00;20.33;;;;;32.95;43.74;100668.97;5056108;28;46279;-78
2022/06/16 06:29:34;;;;;;;;;20.50;18.50;;;;;33.68;42.92;100658.97;5057109;28;45219;-74
2022/06/16 06:32:01;;;;;;;;;22.33;18.00;;;;;34.05;41.66;100659.25;5057754;28;45487;-73
2022/06/16 06:34:27;;;;;;;;;19.00;17.00;;;;;34.33;40.00;100641.13;5057865;28;45436;-74
2022/06/16 06:36:53;;;;;;;;;22.00;16.67;;;;;34.68;40.13;100654.16;5056959;28;45430;-73
2022/06/16 06:39:18;;;;;;;;;20.33;19.33;;;;;34.64;40.16;100655.31;5055798;28;45296;-74
2022/06/16 06:41:44;;;;;;;;;20.33;17.67;;;;;34.37;40.29;100637.25;5057186;28;45406;-74
2022/06/16 06:44:10;;;;;;;;;17.00;16.33;;;;;34.10;40.51;100606.56;5057174;28;45497;-74
2022/06/16 06:46:36;;;;;;;;;14.33;13.00;;;;;33.53;41.15;100603.06;5056941;28;45350;-74
2022/06/16 06:49:02;;;;;;;;;12.67;12.67;;;;;32.49;42.92;100607.72;5056886;28;45444;-74
2022/06/16 06:51:27;;;;;;;;;16.67;15.00;;;;;31.85;45.17;100634.00;5057269;28;45329;-74
2022/06/16 06:53:53;;;;;;;;;17.00;16.00;;;;;31.39;46.10;100632.03;5057121;28;45613;-74
2022/06/16 06:56:19;;;;;;;;;14.00;13.67;;;;;30.97;46.97;100605.59;5055371;28;46708;-74
2022/06/16 06:58:45;;;;;;;;;16.67;14.00;;;;;30.94;47.06;100630.91;5055504;28;45293;-73
2022/06/16 07:01:10;;;;;;;;;17.00;16.00;;;;;30.73;47.46;100620.28;5062071;28;45554;-75
2022/06/16 07:03:36;;;;;;;;;17.00;15.00;;;;;30.80;47.69;100623.53;5055562;28;45581;-76
2022/06/16 07:06:02;;;;;;;;;18.67;16.67;;;;;31.05;47.63;100620.41;5057175;28;46184;-75
2022/06/16 07:08:28;;;;;;;;;16.67;16.00;;;;;31.15;46.63;100584.81;5056722;28;45292;-76
2022/06/16 07:10:54;;;;;;;;;16.33;16.00;;;;;31.46;46.91;100609.19;5056978;28;45481;-77
2022/06/16 07:13:20;;;;;;;;;16.33;15.33;;;;;32.09;45.25;100613.69;5056820;28;45322;-76
2022/06/16 07:15:46;;;;;;;;;18.00;17.00;;;;;33.35;43.57;100610.53;5056492;28;45367;-75
2022/06/16 07:18:12;;;;;;;;;16.67;16.00;;;;;34.46;40.93;100612.22;5056566;28;45493;-78
2022/06/16 07:20:38;;;;;;;;;17.00;15.67;;;;;34.50;40.49;100606.56;5057272;28;45520;-75
2022/06/16 07:23:03;;;;;;;;;19.67;17.67;;;;;34.00;41.76;100609.91;5077039;27;45381;-78
2022/06/16 07:25:29;;;;;;;;;19.00;18.00;;;;;33.23;42.85;100576.13;5076453;27;45535;-78
2022/06/16 07:27:56;;;;;;;;;21.00;17.00;;;;;32.85;43.96;100579.41;5092266;27;45603;-76
2022/06/16 07:30:23;;;;;;;;;18.67;14.33;;;;;32.76;43.95;100599.78;5077099;27;46091;-81
2022/06/16 07:32:50;;;;;;;;;18.00;16.00;;;;;32.95;44.29;100604.91;5080275;27;45307;-74
2022/06/16 07:35:19;;;;;;;;;17.67;16.33;;;;;33.46;43.48;100607.13;5080266;27;45606;-74
2022/06/16 07:37:44;;;;;;;;;18.67;17.67;;;;;33.85;42.31;100589.25;5080053;27;45577;-74
2022/06/16 07:40:13;;;;;;;;;20.00;20.00;;;;;35.24;40.01;100616.69;5080277;27;45461;-76
2022/06/16 07:42:38;;;;;;;;;20.00;20.00;;;;;36.63;38.21;100598.16;5080416;27;45432;-75
2022/06/16 07:45:05;;;;;;;;;16.67;15.33;;;;;37.93;35.58;100597.59;5080116;27;45391;-74
2022/06/16 07:47:30;;;;;;;;;19.67;19.00;;;;;38.59;33.58;100575.59;5079574;27;45516;-75
2022/06/16 07:49:56;;;;;;;;;19.00;17.67;;;;;39.39;32.17;100526.59;5077831;28;45560;-75
2022/06/16 07:52:22;;;;;;;;;18.33;17.33;;;;;40.80;30.57;100569.94;5079831;28;45444;-74
2022/06/16 08:10:09;;;;;;;;;15.33;14.00;;;;;43.48;26.49;100579.00;5152437;27;45553;-74
2022/06/16 08:12:37;;;;;;;;;16.67;14.67;;;;;44.37;23.44;100548.13;5135147;27;45325;-73
2022/06/16 08:15:03;;;;;;;;;15.67;14.67;;;;;45.21;23.01;100581.69;5135405;27;45499;-74
2022/06/16 08:17:32;;;;;;;;;13.00;12.00;;;;;46.04;22.32;100572.75;5135366;27;45301;-74
2022/06/16 08:19:59;;;;;;;;;16.00;14.67;;;;;46.81;21.76;100573.56;5135220;27;46489;-75
2022/06/16 08:22:26;;;;;;;;;14.00;14.00;;;;;47.33;20.49;100569.78;5135553;27;45420;-72
2022/06/16 08:24:51;;;;;;;;;14.33;13.00;;;;;47.56;20.61;100524.53;5135549;27;45464;-77
2022/06/16 08:27:19;;;;;;;;;18.33;17.00;;;;;48.23;20.44;100570.31;5135242;27;45429;-76
2022/06/16 08:29:46;;;;;;;;;16.33;15.67;;;;;48.37;19.63;100554.66;5134844;27;45547;-77
2022/06/16 08:32:15;;;;;;;;;17.00;16.00;;;;;48.25;19.37;100501.69;5134951;27;45560;-78
2022/06/16 08:34:40;;;;;;;;;14.00;14.00;;;;;48.90;19.47;100543.91;5135077;27;45483;-79
2022/06/16 08:37:06;;;;;;;;;13.33;13.00;;;;;49.11;18.97;100544.91;5135180;27;45332;-78
2022/06/16 08:39:31;;;;;;;;;20.33;18.67;;;;;49.16;19.16;100507.13;5135566;27;45445;-76
2022/06/16 08:42:17;;;;;;;;;16.67;15.67;;;;;49.52;18.86;100502.34;5135133;27;45694;-79
2022/06/16 08:44:47;;;;;;;;;17.67;16.67;;;;;49.84;18.00;100516.47;5101743;27;45431;-83
2022/06/16 08:47:24;;;;;;;;;14.33;14.33;;;;;49.82;17.92;100510.28;5134876;27;45471;-79
2022/06/16 08:50:22;;;;;;;;;16.33;15.67;;;;;50.27;18.59;100516.91;5134433;27;45452;-80
2022/06/16 08:53:15;;;;;;;;;14.67;14.67;;;;;50.29;17.83;100505.56;5134733;27;45475;-78
2022/06/16 08:55:43;;;;;;;;;15.33;14.67;;;;;49.73;18.68;100412.47;5134191;27;45470;-78
2022/06/16 08:58:21;;;;;;;;;18.33;18.00;;;;;50.01;18.53;100508.59;5134714;27;45310;-79
2022/06/16 09:00:58;;;;;;;;;16.33;14.67;;;;;50.07;18.11;100491.91;5134211;27;46447;-73
2022/06/16 09:03:43;;;;;;;;;16.00;16.00;;;;;50.63;18.13;100504.44;5134526;27;45215;-77
2022/06/16 09:06:33;;;;;;;;;17.67;16.67;;;;;50.85;18.13;100498.59;5134137;27;45433;-76
2022/06/16 09:09:09;;;;;;;;;18.33;18.00;;;;;50.82;17.67;100502.69;5132387;27;45546;-76
2022/06/16 09:11:37;;;;;;;;;19.00;17.33;;;;;50.73;18.37;100499.25;5120230;27;46772;-76
2022/06/16 09:18:10;;;;;;;;;16.00;16.00;;;;;50.56;18.04;100456.38;5120337;27;45336;-76
2022/06/16 09:20:44;;;;;;;;;16.33;16.00;;;;;50.82;18.03;100479.56;5120370;27;45458;-74
2022/06/16 09:23:44;;;;;;;;;15.00;14.33;;;;;50.51;18.03;100482.03;5120114;27;46526;-74
2022/06/16 09:26:31;;;;;;;;;14.00;13.00;;;;;50.43;18.38;100473.94;5120350;27;45652;-76
2022/06/16 09:29:09;;;;;;;;;15.33;15.33;;;;;50.72;18.39;100475.31;5101921;27;45467;-76
2022/06/16 09:31:49;;;;;;;;;14.75;13.75;;;;;50.52;18.29;100403.13;5120358;27;45320;-74
2022/06/16 09:34:25;;;;;;;;;15.67;15.67;;;;;50.96;17.38;100456.19;5120049;27;46176;-73
2022/06/16 09:37:01;;;;;;;;;16.00;14.67;;;;;50.50;18.38;100455.31;5119808;27;45538;-76
2022/06/16 09:39:34;;;;;;;;;13.33;13.33;;;;;50.15;18.85;100438.06;5120438;27;45569;-76
2022/06/16 09:42:33;;;;;;;;;17.67;16.67;;;;;50.02;19.22;100443.59;5102049;27;45515;-76
2022/06/16 09:45:37;;;;;;;;;18.67;18.33;;;;;49.16;19.45;100434.16;5119928;27;45464;-76
2022/06/16 09:48:09;;;;;;;;;17.33;17.33;;;;;48.16;20.92;100430.91;5119669;27;45555;-75
2022/06/16 09:50:52;;;;;;;;;18.00;17.67;;;;;47.35;21.38;100422.97;5100987;27;45407;-74
2022/06/16 09:53:32;;;;;;;;;15.67;15.67;;;;;46.88;22.01;100419.72;5120081;27;45384;-74
2022/06/16 09:56:13;;;;;;;;;18.33;17.67;;;;;47.48;21.17;100397.34;5120112;27;45387;-76
2022/06/16 09:58:52;;;;;;;;;16.67;16.67;;;;;47.88;21.45;100401.31;5119606;27;45499;-78
2022/06/16 10:01:21;;;;;;;;;19.67;17.67;;;;;47.89;21.42;100377.22;5119710;27;45283;-77
2022/06/16 10:03:49;;;;;;;;;17.67;16.67;;;;;48.18;21.44;100414.94;5101240;27;45404;-77
2022/06/16 10:06:42;;;;;;;;;19.33;19.33;;;;;46.89;22.56;100381.88;5119459;27;45569;-78
2022/06/16 10:09:08;;;;;;;;;16.33;16.33;;;;;45.86;23.70;100398.25;5119430;27;45382;-78
2022/06/16 10:12:04;;;;;;;;;22.25;21.75;;;;;45.08;24.64;100400.28;5119479;27;45534;-77
2022/06/16 10:14:37;;;;;;;;;19.33;18.00;;;;;44.17;25.64;100306.25;5117886;27;45234;-77
2022/06/16 10:17:13;;;;;;;;;20.00;20.00;;;;;44.08;25.20;100232.97;5100590;27;48101;-77
2022/06/16 10:19:43;;;;;;;;;19.00;19.00;;;;;45.39;24.83;100404.91;5119352;27;45374;-78
2022/06/16 10:22:12;;;;;;;;;19.33;19.33;;;;;45.56;24.74;100402.84;5118302;27;45297;-78
2022/06/16 10:25:18;;;;;;;;;19.33;19.33;;;;;45.63;23.78;100357.78;5101172;27;45482;-78
2022/06/16 10:27:51;;;;;;;;;19.00;18.00;;;;;45.33;23.73;100325.69;5114697;27;46354;-79
2022/06/16 10:30:24;;;;;;;;;18.00;17.00;;;;;45.18;25.01;100403.63;5118803;27;46105;-77
2022/06/16 10:33:11;;;;;;;;;19.00;19.00;;;;;44.60;25.66;100414.13;5118925;27;45470;-76
2022/06/16 10:35:43;;;;;;;;;22.33;21.67;;;;;44.92;25.06;100405.91;5100268;27;45291;-76
2022/06/16 10:38:10;;;;;;;;;22.33;21.33;;;;;45.77;25.03;100405.78;5118060;27;45954;-77
2022/06/16 10:40:39;;;;;;;;;18.00;18.00;;;;;46.77;23.63;100418.25;5100421;27;45551;-79
2022/06/16 10:43:13;;;;;;;;;19.00;18.67;;;;;47.26;23.77;100429.69;5118875;27;45564;-77
2022/06/16 10:45:40;;;;;;;;;19.33;17.67;;;;;47.39;24.02;100429.81;5118013;27;45187;-77
2022/06/16 10:48:18;;;;;;;;;22.33;20.67;;;;;47.10;23.24;100395.69;5118928;27;45360;-77
2022/06/16 10:50:56;;;;;;;;;20.67;20.00;;;;;47.11;23.53;100419.53;5119019;27;45344;-77
2022/06/16 10:53:27;;;;;;;;;19.00;18.67;;;;;47.01;23.05;100430.06;5118970;27;45376;-77
2022/06/16 10:56:03;;;;;;;;;18.67;18.33;;;;;46.91;23.63;100418.47;5118973;27;45552;-78
2022/06/16 10:58:32;;;;;;;;;18.33;17.67;;;;;46.78;23.29;100344.50;5118593;27;46210;-77
2022/06/16 11:01:07;;;;;;;;;19.33;18.67;;;;;47.73;22.88;100395.00;5119001;27;45330;-77
2022/06/16 11:03:40;;;;;;;;;18.67;18.67;;;;;48.07;22.23;100379.50;5119230;27;45427;-77
2022/06/16 11:06:07;;;;;;;;;17.00;16.33;;;;;47.99;22.06;100320.47;5119185;27;45359;-77
2022/06/16 11:08:40;;;;;;;;;19.67;19.67;;;;;47.65;22.46;100321.28;5119042;27;46331;-77
2022/06/16 11:11:06;;;;;;;;;20.33;19.67;;;;;46.95;24.01;100392.13;5118763;27;45540;-77
2022/06/16 11:13:36;;;;;;;;;19.33;17.67;;;;;45.10;25.35;100282.41;5118909;27;45502;-77
2022/06/16 11:16:13;;;;;;;;;22.67;21.00;;;;;44.99;25.52;100409.66;5118813;27;45377;-77
2022/06/16 11:18:39;;;;;;;;;18.33;16.67;;;;;44.37;26.38;100400.28;5118246;27;45429;-79
2022/06/16 11:21:18;;;;;;;;;26.75;25.00;;;;;43.75;26.17;100397.31;5118934;27;45380;-77
2022/06/16 11:23:50;;;;;;;;;22.67;21.67;;;;;43.47;26.46;100411.41;5118771;27;45439;-77
2022/06/16 11:26:15;;;;;;;;;21.33;21.00;;;;;43.19;26.12;100410.84;5118691;27;45428;-77
2022/06/16 11:28:47;;;;;;;;;22.33;21.00;;;;;42.61;26.82;100358.47;5118342;27;45982;-80
2022/06/16 11:31:21;;;;;;;;;18.67;18.67;;;;;41.78;27.27;100264.94;5118404;27;45453;-77
2022/06/16 11:34:07;;;;;;;;;19.67;19.33;;;;;41.95;27.09;100361.94;5118248;27;45278;-78
2022/06/16 11:36:47;;;;;;;;;18.67;18.67;;;;;41.75;27.19;100396.94;5103595;27;45437;-77
2022/06/16 11:39:37;;;;;;;;;17.67;17.00;;;;;41.57;27.72;100395.06;5118115;27;45436;-77
2022/06/16 11:42:07;;;;;;;;;20.33;19.00;;;;;41.26;27.95;100375.44;5118479;27;45257;-76
2022/06/16 11:44:42;;;;;;;;;19.33;19.33;;;;;41.12;28.76;100380.41;5118636;27;45320;-77
2022/06/16 11:47:31;;;;;;;;;19.00;19.00;;;;;40.65;28.53;100372.38;5118560;27;45445;-77
2022/06/16 11:50:32;;;;;;;;;20.00;20.00;;;;;40.43;29.27;100375.50;5099670;27;46636;-78
2022/06/16 11:52:58;;;;;;;;;21.67;19.67;;;;;40.41;29.77;100372.06;5113079;27;45331;-77
2022/06/16 11:55:33;;;;;;;;;20.67;19.33;;;;;39.79;29.93;100309.63;5118286;27;45307;-78
2022/06/16 11:58:26;;;;;;;;;20.67;20.67;;;;;39.86;30.06;100365.47;5099448;27;45611;-77
2022/06/16 12:01:19;;;;;;;;;26.33;24.00;;;;;39.64;29.73;100372.13;5099380;27;45853;-77
2022/06/16 12:03:56;;;;;;;;;28.00;23.33;;;;;39.50;30.43;100369.88;5107477;27;45544;-77
2022/06/16 12:07:04;;;;;;;;;24.33;23.33;;;;;38.55;31.55;100330.38;5116437;27;45451;-77